sensor_id;sensor_type;location;lat;lon;timestamp;P1;durP1;ratioP1;P2;durP2;ratioP2
77384;SDS011;66443;49.122;8.346;2023-11-21T00:00:35;6.00;;;1.80;;
77384;SDS011;66443;49.122;8.346;2023-11-21T00:03:00;4.73;;;2.63;;
77384;SDS011;66443;49.122;8.346;2023-11-21T00:05:25;4.57;;;1.83;;
77384;SDS011;66443;49.122;8.346;2023-11-21T00:07:50;6.73;;;2.07;;
77384;SDS011;66443;49.122;8.346;2023-11-21T00:10:16;4.57;;;1.97;;
77384;SDS011;66443;49.122;8.346;2023-11-21T00:12:41;8.27;;;2.30;;
77384;SDS011;66443;49.122;8.346;2023-11-21T00:15:07;4.27;;;1.90;;
77384;SDS011;66443;49.122;8.346;2023-11-21T00:17:36;2.60;;;1.87;;
77384;SDS011;66443;49.122;8.346;2023-11-21T00:20:01;3.70;;;1.73;;
77384;SDS011;66443;49.122;8.346;2023-11-21T00:22:26;6.80;;;2.03;;
77384;SDS011;66443;49.122;8.346;2023-11-21T00:24:51;9.47;;;3.40;;
77384;SDS011;66443;49.122;8.346;2023-11-21T00:27:17;4.67;;;2.33;;
77384;SDS011;66443;49.122;8.346;2023-11-21T00:29:42;7.70;;;1.97;;
77384;SDS011;66443;49.122;8.346;2023-11-21T00:32:07;3.78;;;1.98;;
77384;SDS011;66443;49.122;8.346;2023-11-21T00:34:33;8.60;;;1.90;;
77384;SDS011;66443;49.122;8.346;2023-11-21T00:36:58;3.80;;;1.80;;
77384;SDS011;66443;49.122;8.346;2023-11-21T00:39:23;6.90;;;2.00;;
77384;SDS011;66443;49.122;8.346;2023-11-21T00:41:49;3.70;;;2.00;;
77384;SDS011;66443;49.122;8.346;2023-11-21T00:44:14;4.03;;;1.80;;
77384;SDS011;66443;49.122;8.346;2023-11-21T00:46:39;5.83;;;1.90;;
77384;SDS011;66443;49.122;8.346;2023-11-21T00:49:04;6.67;;;1.90;;
77384;SDS011;66443;49.122;8.346;2023-11-21T00:51:30;3.47;;;1.70;;
77384;SDS011;66443;49.122;8.346;2023-11-21T00:53:55;5.57;;;1.60;;
77384;SDS011;66443;49.122;8.346;2023-11-21T00:56:20;5.17;;;2.33;;
77384;SDS011;66443;49.122;8.346;2023-11-21T00:58:46;4.63;;;1.70;;
77384;SDS011;66443;49.122;8.346;2023-11-21T01:01:17;6.10;;;1.90;;
77384;SDS011;66443;49.122;8.346;2023-11-21T01:03:42;3.07;;;1.80;;
77384;SDS011;66443;49.122;8.346;2023-11-21T01:06:08;6.07;;;1.70;;
77384;SDS011;66443;49.122;8.346;2023-11-21T01:08:34;5.17;;;1.60;;
77384;SDS011;66443;49.122;8.346;2023-11-21T01:10:59;3.60;;;1.43;;
77384;SDS011;66443;49.122;8.346;2023-11-21T01:13:24;3.97;;;1.73;;
77384;SDS011;66443;49.122;8.346;2023-11-21T01:15:54;3.00;;;1.47;;
77384;SDS011;66443;49.122;8.346;2023-11-21T01:18:19;3.30;;;1.40;;
77384;SDS011;66443;49.122;8.346;2023-11-21T01:20:44;3.23;;;1.30;;
77384;SDS011;66443;49.122;8.346;2023-11-21T01:23:11;2.40;;;1.40;;
77384;SDS011;66443;49.122;8.346;2023-11-21T01:25:37;4.47;;;1.57;;
77384;SDS011;66443;49.122;8.346;2023-11-21T01:28:02;2.70;;;1.40;;
77384;SDS011;66443;49.122;8.346;2023-11-21T01:30:27;5.50;;;2.20;;
77384;SDS011;66443;49.122;8.346;2023-11-21T01:32:52;2.97;;;1.30;;
77384;SDS011;66443;49.122;8.346;2023-11-21T01:35:17;2.43;;;1.13;;
77384;SDS011;66443;49.122;8.346;2023-11-21T01:37:43;1.43;;;1.33;;
77384;SDS011;66443;49.122;8.346;2023-11-21T01:40:08;3.83;;;1.63;;
77384;SDS011;66443;49.122;8.346;2023-11-21T01:42:38;3.20;;;1.10;;
77384;SDS011;66443;49.122;8.346;2023-11-21T01:45:03;4.43;;;1.60;;
77384;SDS011;66443;49.122;8.346;2023-11-21T01:47:30;3.57;;;1.40;;
77384;SDS011;66443;49.122;8.346;2023-11-21T01:49:55;2.70;;;1.30;;
77384;SDS011;66443;49.122;8.346;2023-11-21T01:52:21;1.27;;;1.17;;
77384;SDS011;66443;49.122;8.346;2023-11-21T01:54:46;5.33;;;1.43;;
77384;SDS011;66443;49.122;8.346;2023-11-21T01:57:12;2.03;;;1.23;;
77384;SDS011;66443;49.122;8.346;2023-11-21T01:59:38;2.77;;;1.40;;
77384;SDS011;66443;49.122;8.346;2023-11-21T02:02:07;1.83;;;1.33;;
77384;SDS011;66443;49.122;8.346;2023-11-21T02:04:32;2.30;;;1.30;;
77384;SDS011;66443;49.122;8.346;2023-11-21T02:06:57;4.03;;;1.47;;
77384;SDS011;66443;49.122;8.346;2023-11-21T02:09:24;3.17;;;1.43;;
77384;SDS011;66443;49.122;8.346;2023-11-21T02:11:50;2.50;;;1.23;;
77384;SDS011;66443;49.122;8.346;2023-11-21T02:14:15;1.57;;;1.20;;
77384;SDS011;66443;49.122;8.346;2023-11-21T02:16:41;4.33;;;1.33;;
77384;SDS011;66443;49.122;8.346;2023-11-21T02:19:07;4.47;;;1.20;;
77384;SDS011;66443;49.122;8.346;2023-11-21T02:21:35;2.27;;;1.43;;
77384;SDS011;66443;49.122;8.346;2023-11-21T02:24:01;2.50;;;1.23;;
77384;SDS011;66443;49.122;8.346;2023-11-21T02:26:26;2.53;;;1.20;;
77384;SDS011;66443;49.122;8.346;2023-11-21T02:28:51;3.03;;;1.30;;
77384;SDS011;66443;49.122;8.346;2023-11-21T02:31:18;4.20;;;1.50;;
77384;SDS011;66443;49.122;8.346;2023-11-21T02:33:44;3.70;;;1.67;;
77384;SDS011;66443;49.122;8.346;2023-11-21T02:36:09;3.73;;;1.50;;
77384;SDS011;66443;49.122;8.346;2023-11-21T02:38:34;2.27;;;1.40;;
77384;SDS011;66443;49.122;8.346;2023-11-21T02:40:59;3.13;;;1.20;;
77384;SDS011;66443;49.122;8.346;2023-11-21T02:43:24;5.77;;;1.60;;
77384;SDS011;66443;49.122;8.346;2023-11-21T02:45:49;2.23;;;1.53;;
77384;SDS011;66443;49.122;8.346;2023-11-21T02:48:15;2.03;;;1.40;;
77384;SDS011;66443;49.122;8.346;2023-11-21T02:50:40;5.37;;;1.73;;
77384;SDS011;66443;49.122;8.346;2023-11-21T02:53:05;5.33;;;1.80;;
77384;SDS011;66443;49.122;8.346;2023-11-21T02:55:33;3.33;;;1.60;;
77384;SDS011;66443;49.122;8.346;2023-11-21T02:58:00;3.40;;;2.10;;
77384;SDS011;66443;49.122;8.346;2023-11-21T03:00:25;6.70;;;2.23;;
77384;SDS011;66443;49.122;8.346;2023-11-21T03:02:50;7.17;;;2.17;;
77384;SDS011;66443;49.122;8.346;2023-11-21T03:05:16;2.97;;;1.73;;
77384;SDS011;66443;49.122;8.346;2023-11-21T03:07:41;2.77;;;1.83;;
77384;SDS011;66443;49.122;8.346;2023-11-21T03:10:07;4.73;;;1.40;;
77384;SDS011;66443;49.122;8.346;2023-11-21T03:12:34;2.10;;;1.40;;
77384;SDS011;66443;49.122;8.346;2023-11-21T03:14:59;8.93;;;1.93;;
77384;SDS011;66443;49.122;8.346;2023-11-21T03:17:24;4.40;;;1.70;;
77384;SDS011;66443;49.122;8.346;2023-11-21T03:19:49;2.57;;;1.87;;
77384;SDS011;66443;49.122;8.346;2023-11-21T03:22:14;6.67;;;1.90;;
77384;SDS011;66443;49.122;8.346;2023-11-21T03:24:40;5.43;;;1.90;;
77384;SDS011;66443;49.122;8.346;2023-11-21T03:27:05;4.10;;;2.07;;
77384;SDS011;66443;49.122;8.346;2023-11-21T03:29:30;2.43;;;1.40;;
77384;SDS011;66443;49.122;8.346;2023-11-21T03:31:55;2.57;;;1.47;;
77384;SDS011;66443;49.122;8.346;2023-11-21T03:34:24;1.97;;;1.60;;
77384;SDS011;66443;49.122;8.346;2023-11-21T03:36:51;3.50;;;1.80;;
77384;SDS011;66443;49.122;8.346;2023-11-21T03:39:16;1.60;;;1.50;;
77384;SDS011;66443;49.122;8.346;2023-11-21T03:41:41;3.70;;;1.90;;
77384;SDS011;66443;49.122;8.346;2023-11-21T03:44:06;2.13;;;1.50;;
77384;SDS011;66443;49.122;8.346;2023-11-21T03:46:32;2.57;;;1.60;;
77384;SDS011;66443;49.122;8.346;2023-11-21T03:48:57;2.67;;;1.63;;
77384;SDS011;66443;49.122;8.346;2023-11-21T03:51:22;1.83;;;1.60;;
77384;SDS011;66443;49.122;8.346;2023-11-21T03:53:47;3.43;;;1.40;;
77384;SDS011;66443;49.122;8.346;2023-11-21T03:56:13;3.17;;;1.60;;
77384;SDS011;66443;49.122;8.346;2023-11-21T03:58:38;2.20;;;2.00;;
77384;SDS011;66443;49.122;8.346;2023-11-21T04:01:03;2.70;;;1.97;;
77384;SDS011;66443;49.122;8.346;2023-11-21T04:03:29;1.67;;;1.50;;
77384;SDS011;66443;49.122;8.346;2023-11-21T04:05:54;2.43;;;1.63;;
77384;SDS011;66443;49.122;8.346;2023-11-21T04:08:20;1.73;;;1.37;;
77384;SDS011;66443;49.122;8.346;2023-11-21T04:10:45;3.53;;;1.63;;
77384;SDS011;66443;49.122;8.346;2023-11-21T04:13:10;2.13;;;1.53;;
77384;SDS011;66443;49.122;8.346;2023-11-21T04:15:35;3.97;;;1.50;;
77384;SDS011;66443;49.122;8.346;2023-11-21T04:18:00;1.80;;;1.60;;
77384;SDS011;66443;49.122;8.346;2023-11-21T04:20:26;4.63;;;1.80;;
77384;SDS011;66443;49.122;8.346;2023-11-21T04:22:51;3.03;;;1.80;;
77384;SDS011;66443;49.122;8.346;2023-11-21T04:25:16;2.70;;;1.47;;
77384;SDS011;66443;49.122;8.346;2023-11-21T04:27:42;3.93;;;1.93;;
77384;SDS011;66443;49.122;8.346;2023-11-21T04:30:09;2.30;;;1.97;;
77384;SDS011;66443;49.122;8.346;2023-11-21T04:32:34;3.53;;;1.70;;
77384;SDS011;66443;49.122;8.346;2023-11-21T04:35:00;3.13;;;1.73;;
77384;SDS011;66443;49.122;8.346;2023-11-21T04:37:25;1.70;;;1.60;;
77384;SDS011;66443;49.122;8.346;2023-11-21T04:39:50;3.73;;;1.40;;
77384;SDS011;66443;49.122;8.346;2023-11-21T04:42:15;3.30;;;1.70;;
77384;SDS011;66443;49.122;8.346;2023-11-21T04:44:40;1.67;;;1.40;;
77384;SDS011;66443;49.122;8.346;2023-11-21T04:47:06;1.50;;;1.40;;
77384;SDS011;66443;49.122;8.346;2023-11-21T04:49:31;3.63;;;1.70;;
77384;SDS011;66443;49.122;8.346;2023-11-21T04:51:56;3.20;;;1.43;;
77384;SDS011;66443;49.122;8.346;2023-11-21T04:54:21;4.70;;;2.20;;
77384;SDS011;66443;49.122;8.346;2023-11-21T04:56:47;3.30;;;1.73;;
77384;SDS011;66443;49.122;8.346;2023-11-21T04:59:12;1.50;;;1.33;;
77384;SDS011;66443;49.122;8.346;2023-11-21T05:01:37;3.60;;;2.00;;
77384;SDS011;66443;49.122;8.346;2023-11-21T05:04:04;3.13;;;1.70;;
77384;SDS011;66443;49.122;8.346;2023-11-21T05:06:31;5.07;;;2.13;;
77384;SDS011;66443;49.122;8.346;2023-11-21T05:08:56;4.53;;;2.20;;
77384;SDS011;66443;49.122;8.346;2023-11-21T05:11:24;3.83;;;2.20;;
77384;SDS011;66443;49.122;8.346;2023-11-21T05:13:50;2.50;;;1.97;;
77384;SDS011;66443;49.122;8.346;2023-11-21T05:16:15;4.23;;;2.13;;
77384;SDS011;66443;49.122;8.346;2023-11-21T05:18:40;3.30;;;1.97;;
77384;SDS011;66443;49.122;8.346;2023-11-21T05:21:05;2.63;;;2.20;;
77384;SDS011;66443;49.122;8.346;2023-11-21T05:23:31;4.20;;;2.70;;
77384;SDS011;66443;49.122;8.346;2023-11-21T05:25:56;3.47;;;2.40;;
77384;SDS011;66443;49.122;8.346;2023-11-21T05:28:22;3.20;;;1.87;;
77384;SDS011;66443;49.122;8.346;2023-11-21T05:30:47;3.40;;;2.50;;
77384;SDS011;66443;49.122;8.346;2023-11-21T05:33:12;3.47;;;2.53;;
77384;SDS011;66443;49.122;8.346;2023-11-21T05:35:37;5.80;;;2.40;;
77384;SDS011;66443;49.122;8.346;2023-11-21T05:38:02;4.97;;;3.00;;
77384;SDS011;66443;49.122;8.346;2023-11-21T05:40:28;6.13;;;2.83;;
77384;SDS011;66443;49.122;8.346;2023-11-21T05:42:55;4.27;;;3.13;;
77384;SDS011;66443;49.122;8.346;2023-11-21T05:45:20;3.37;;;3.07;;
77384;SDS011;66443;49.122;8.346;2023-11-21T05:47:46;3.97;;;3.30;;
77384;SDS011;66443;49.122;8.346;2023-11-21T05:50:13;5.03;;;3.60;;
77384;SDS011;66443;49.122;8.346;2023-11-21T05:52:42;6.03;;;3.57;;
77384;SDS011;66443;49.122;8.346;2023-11-21T05:55:08;5.07;;;3.10;;
77384;SDS011;66443;49.122;8.346;2023-11-21T05:57:34;4.30;;;2.80;;
77384;SDS011;66443;49.122;8.346;2023-11-21T06:00:01;3.47;;;3.17;;
77384;SDS011;66443;49.122;8.346;2023-11-21T06:02:35;4.97;;;3.43;;
77384;SDS011;66443;49.122;8.346;2023-11-21T06:05:00;5.23;;;3.70;;
77384;SDS011;66443;49.122;8.346;2023-11-21T06:07:25;6.83;;;3.40;;
77384;SDS011;66443;49.122;8.346;2023-11-21T06:09:50;4.00;;;3.63;;
77384;SDS011;66443;49.122;8.346;2023-11-21T06:12:15;4.00;;;3.63;;
77384;SDS011;66443;49.122;8.346;2023-11-21T06:14:41;4.70;;;3.90;;
77384;SDS011;66443;49.122;8.346;2023-11-21T06:17:06;7.37;;;4.53;;
77384;SDS011;66443;49.122;8.346;2023-11-21T06:19:31;4.77;;;3.33;;
77384;SDS011;66443;49.122;8.346;2023-11-21T06:21:56;4.00;;;3.57;;
77384;SDS011;66443;49.122;8.346;2023-11-21T06:24:21;5.23;;;4.23;;
77384;SDS011;66443;49.122;8.346;2023-11-21T06:26:46;5.50;;;3.77;;
77384;SDS011;66443;49.122;8.346;2023-11-21T06:29:13;5.63;;;3.53;;
77384;SDS011;66443;49.122;8.346;2023-11-21T06:31:38;4.10;;;3.70;;
77384;SDS011;66443;49.122;8.346;2023-11-21T06:34:05;4.40;;;4.00;;
77384;SDS011;66443;49.122;8.346;2023-11-21T06:36:31;6.57;;;4.00;;
77384;SDS011;66443;49.122;8.346;2023-11-21T06:38:56;4.57;;;4.17;;
77384;SDS011;66443;49.122;8.346;2023-11-21T06:41:21;4.37;;;3.83;;
77384;SDS011;66443;49.122;8.346;2023-11-21T06:43:46;4.20;;;3.77;;
77384;SDS011;66443;49.122;8.346;2023-11-21T06:46:13;7.43;;;4.10;;
77384;SDS011;66443;49.122;8.346;2023-11-21T06:48:43;5.40;;;4.57;;
77384;SDS011;66443;49.122;8.346;2023-11-21T06:51:09;6.23;;;5.53;;
77384;SDS011;66443;49.122;8.346;2023-11-21T06:53:35;10.30;;;6.10;;
77384;SDS011;66443;49.122;8.346;2023-11-21T06:56:00;6.77;;;5.13;;
77384;SDS011;66443;49.122;8.346;2023-11-21T06:58:25;5.47;;;4.67;;
77384;SDS011;66443;49.122;8.346;2023-11-21T07:00:51;5.70;;;4.90;;
77384;SDS011;66443;49.122;8.346;2023-11-21T07:03:17;8.30;;;5.13;;
77384;SDS011;66443;49.122;8.346;2023-11-21T07:05:44;10.67;;;6.17;;
77384;SDS011;66443;49.122;8.346;2023-11-21T07:08:09;5.80;;;5.27;;
77384;SDS011;66443;49.122;8.346;2023-11-21T07:10:34;9.10;;;5.70;;
77384;SDS011;66443;49.122;8.346;2023-11-21T07:13:01;7.77;;;5.23;;
77384;SDS011;66443;49.122;8.346;2023-11-21T07:15:26;7.80;;;6.23;;
77384;SDS011;66443;49.122;8.346;2023-11-21T07:17:51;6.43;;;5.77;;
77384;SDS011;66443;49.122;8.346;2023-11-21T07:20:19;7.80;;;5.90;;
77384;SDS011;66443;49.122;8.346;2023-11-21T07:22:44;5.73;;;5.13;;
77384;SDS011;66443;49.122;8.346;2023-11-21T07:25:09;5.93;;;5.33;;
77384;SDS011;66443;49.122;8.346;2023-11-21T07:27:35;5.27;;;4.77;;
77384;SDS011;66443;49.122;8.346;2023-11-21T07:30:01;5.73;;;4.93;;
77384;SDS011;66443;49.122;8.346;2023-11-21T07:32:29;5.27;;;4.47;;
77384;SDS011;66443;49.122;8.346;2023-11-21T07:34:54;5.27;;;4.23;;
77384;SDS011;66443;49.122;8.346;2023-11-21T07:37:22;5.50;;;5.00;;
77384;SDS011;66443;49.122;8.346;2023-11-21T07:39:47;4.47;;;4.07;;
77384;SDS011;66443;49.122;8.346;2023-11-21T07:42:12;5.33;;;4.80;;
77384;SDS011;66443;49.122;8.346;2023-11-21T07:44:37;5.73;;;5.23;;
77384;SDS011;66443;49.122;8.346;2023-11-21T07:47:03;7.57;;;5.40;;
77384;SDS011;66443;49.122;8.346;2023-11-21T07:49:29;7.10;;;6.17;;
77384;SDS011;66443;49.122;8.346;2023-11-21T07:51:54;9.37;;;6.13;;
77384;SDS011;66443;49.122;8.346;2023-11-21T07:54:20;7.47;;;6.03;;
77384;SDS011;66443;49.122;8.346;2023-11-21T07:56:46;7.47;;;6.50;;
77384;SDS011;66443;49.122;8.346;2023-11-21T07:59:11;7.93;;;6.20;;
77384;SDS011;66443;49.122;8.346;2023-11-21T08:01:37;7.00;;;5.73;;
77384;SDS011;66443;49.122;8.346;2023-11-21T08:04:03;6.87;;;6.17;;
77384;SDS011;66443;49.122;8.346;2023-11-21T08:06:29;6.93;;;6.23;;
77384;SDS011;66443;49.122;8.346;2023-11-21T08:08:54;8.50;;;7.07;;
77384;SDS011;66443;49.122;8.346;2023-11-21T08:11:20;8.30;;;6.60;;
77384;SDS011;66443;49.122;8.346;2023-11-21T08:13:46;10.40;;;6.73;;
77384;SDS011;66443;49.122;8.346;2023-11-21T08:16:11;8.10;;;7.13;;
77384;SDS011;66443;49.122;8.346;2023-11-21T08:18:37;8.20;;;6.30;;
77384;SDS011;66443;49.122;8.346;2023-11-21T08:21:02;8.43;;;7.60;;
77384;SDS011;66443;49.122;8.346;2023-11-21T08:23:28;7.43;;;6.50;;
77384;SDS011;66443;49.122;8.346;2023-11-21T08:25:53;7.80;;;7.00;;
77384;SDS011;66443;49.122;8.346;2023-11-21T08:28:19;7.83;;;7.07;;
77384;SDS011;66443;49.122;8.346;2023-11-21T08:30:44;8.00;;;7.20;;
77384;SDS011;66443;49.122;8.346;2023-11-21T08:33:09;9.73;;;6.63;;
77384;SDS011;66443;49.122;8.346;2023-11-21T08:35:36;7.70;;;6.27;;
77384;SDS011;66443;49.122;8.346;2023-11-21T08:38:02;8.27;;;7.03;;
77384;SDS011;66443;49.122;8.346;2023-11-21T08:40:27;6.60;;;5.73;;
77384;SDS011;66443;49.122;8.346;2023-11-21T08:42:53;7.33;;;5.43;;
77384;SDS011;66443;49.122;8.346;2023-11-21T08:45:18;6.90;;;6.23;;
77384;SDS011;66443;49.122;8.346;2023-11-21T08:47:44;7.33;;;5.77;;
77384;SDS011;66443;49.122;8.346;2023-11-21T08:50:09;7.70;;;6.53;;
77384;SDS011;66443;49.122;8.346;2023-11-21T08:52:34;6.63;;;5.93;;
77384;SDS011;66443;49.122;8.346;2023-11-21T08:55:01;6.83;;;5.90;;
77384;SDS011;66443;49.122;8.346;2023-11-21T08:57:33;7.03;;;6.33;;
77384;SDS011;66443;49.122;8.346;2023-11-21T08:59:58;7.53;;;6.73;;
77384;SDS011;66443;49.122;8.346;2023-11-21T09:02:23;7.57;;;6.77;;
77384;SDS011;66443;49.122;8.346;2023-11-21T09:04:48;7.20;;;5.22;;
77384;SDS011;66443;49.122;8.346;2023-11-21T09:07:13;8.53;;;7.40;;
77384;SDS011;66443;49.122;8.346;2023-11-21T09:09:38;7.13;;;6.37;;
77384;SDS011;66443;49.122;8.346;2023-11-21T09:12:04;12.60;;;7.73;;
77384;SDS011;66443;49.122;8.346;2023-11-21T09:14:29;10.27;;;7.27;;
77384;SDS011;66443;49.122;8.346;2023-11-21T09:16:54;9.97;;;7.43;;
77384;SDS011;66443;49.122;8.346;2023-11-21T09:19:21;8.20;;;7.10;;
77384;SDS011;66443;49.122;8.346;2023-11-21T09:21:46;7.43;;;6.30;;
77384;SDS011;66443;49.122;8.346;2023-11-21T09:24:11;9.20;;;6.90;;
77384;SDS011;66443;49.122;8.346;2023-11-21T09:26:36;7.37;;;6.37;;
77384;SDS011;66443;49.122;8.346;2023-11-21T09:29:02;7.63;;;6.90;;
77384;SDS011;66443;49.122;8.346;2023-11-21T09:31:27;8.03;;;6.63;;
77384;SDS011;66443;49.122;8.346;2023-11-21T09:33:52;6.83;;;6.20;;
77384;SDS011;66443;49.122;8.346;2023-11-21T09:36:17;7.03;;;6.30;;
77384;SDS011;66443;49.122;8.346;2023-11-21T09:38:43;6.40;;;5.90;;
77384;SDS011;66443;49.122;8.346;2023-11-21T09:41:10;5.93;;;5.33;;
77384;SDS011;66443;49.122;8.346;2023-11-21T09:43:37;7.00;;;6.13;;
77384;SDS011;66443;49.122;8.346;2023-11-21T09:46:03;6.40;;;5.73;;
77384;SDS011;66443;49.122;8.346;2023-11-21T09:48:30;6.83;;;5.83;;
77384;SDS011;66443;49.122;8.346;2023-11-21T09:50:57;6.17;;;5.57;;
77384;SDS011;66443;49.122;8.346;2023-11-21T09:53:23;6.07;;;5.47;;
77384;SDS011;66443;49.122;8.346;2023-11-21T09:55:51;7.03;;;6.33;;
77384;SDS011;66443;49.122;8.346;2023-11-21T09:58:17;5.73;;;5.07;;
77384;SDS011;66443;49.122;8.346;2023-11-21T10:00:43;5.27;;;4.77;;
77384;SDS011;66443;49.122;8.346;2023-11-21T10:03:08;4.80;;;4.30;;
77384;SDS011;66443;49.122;8.346;2023-11-21T10:05:34;7.60;;;4.80;;
77384;SDS011;66443;49.122;8.346;2023-11-21T10:07:59;6.07;;;5.47;;
77384;SDS011;66443;49.122;8.346;2023-11-21T10:10:25;10.30;;;5.53;;
77384;SDS011;66443;49.122;8.346;2023-11-21T10:12:51;10.37;;;5.10;;
77384;SDS011;66443;49.122;8.346;2023-11-21T10:15:23;7.23;;;5.73;;
77384;SDS011;66443;49.122;8.346;2023-11-21T10:17:52;5.33;;;4.83;;
77384;SDS011;66443;49.122;8.346;2023-11-21T10:20:18;5.73;;;4.73;;
77384;SDS011;66443;49.122;8.346;2023-11-21T10:22:44;6.27;;;4.90;;
77384;SDS011;66443;49.122;8.346;2023-11-21T10:25:10;6.77;;;5.40;;
77384;SDS011;66443;49.122;8.346;2023-11-21T10:27:38;5.43;;;4.90;;
77384;SDS011;66443;49.122;8.346;2023-11-21T10:30:04;5.37;;;4.70;;
77384;SDS011;66443;49.122;8.346;2023-11-21T10:32:29;4.70;;;4.20;;
77384;SDS011;66443;49.122;8.346;2023-11-21T10:34:58;5.87;;;5.30;;
77384;SDS011;66443;49.122;8.346;2023-11-21T10:37:25;5.90;;;5.30;;
77384;SDS011;66443;49.122;8.346;2023-11-21T10:39:55;6.43;;;5.23;;
77384;SDS011;66443;49.122;8.346;2023-11-21T10:42:21;5.60;;;5.10;;
77384;SDS011;66443;49.122;8.346;2023-11-21T10:44:49;6.30;;;5.63;;
77384;SDS011;66443;49.122;8.346;2023-11-21T10:47:14;6.07;;;5.47;;
77384;SDS011;66443;49.122;8.346;2023-11-21T10:49:40;6.13;;;4.77;;
77384;SDS011;66443;49.122;8.346;2023-11-21T10:52:06;6.00;;;5.40;;
77384;SDS011;66443;49.122;8.346;2023-11-21T10:54:32;5.90;;;5.30;;
77384;SDS011;66443;49.122;8.346;2023-11-21T10:56:59;6.73;;;6.13;;
77384;SDS011;66443;49.122;8.346;2023-11-21T10:59:28;6.47;;;5.80;;
77384;SDS011;66443;49.122;8.346;2023-11-21T11:01:54;5.90;;;5.33;;
77384;SDS011;66443;49.122;8.346;2023-11-21T11:04:20;6.67;;;5.97;;
77384;SDS011;66443;49.122;8.346;2023-11-21T11:06:49;6.57;;;5.63;;
77384;SDS011;66443;49.122;8.346;2023-11-21T11:09:16;5.67;;;5.00;;
77384;SDS011;66443;49.122;8.346;2023-11-21T11:11:42;6.37;;;5.77;;
77384;SDS011;66443;49.122;8.346;2023-11-21T11:14:10;6.67;;;6.00;;
77384;SDS011;66443;49.122;8.346;2023-11-21T11:16:35;6.70;;;6.07;;
77384;SDS011;66443;49.122;8.346;2023-11-21T11:19:02;8.90;;;8.03;;
77384;SDS011;66443;49.122;8.346;2023-11-21T11:21:38;9.87;;;7.83;;
77384;SDS011;66443;49.122;8.346;2023-11-21T11:24:23;7.90;;;7.10;;
77384;SDS011;66443;49.122;8.346;2023-11-21T11:27:15;6.83;;;6.23;;
77384;SDS011;66443;49.122;8.346;2023-11-21T11:29:50;8.10;;;7.27;;
77384;SDS011;66443;49.122;8.346;2023-11-21T11:37:18;8.30;;;7.40;;
77384;SDS011;66443;49.122;8.346;2023-11-21T11:39:43;7.80;;;7.00;;
77384;SDS011;66443;49.122;8.346;2023-11-21T11:42:12;7.80;;;7.00;;
77384;SDS011;66443;49.122;8.346;2023-11-21T11:47:14;7.50;;;6.80;;
77384;SDS011;66443;49.122;8.346;2023-11-21T11:49:54;6.90;;;5.93;;
77384;SDS011;66443;49.122;8.346;2023-11-21T11:52:41;9.70;;;6.13;;
77384;SDS011;66443;49.122;8.346;2023-11-21T11:55:12;6.93;;;5.77;;
77384;SDS011;66443;49.122;8.346;2023-11-21T11:57:38;6.97;;;6.27;;
77384;SDS011;66443;49.122;8.346;2023-11-21T12:00:07;7.53;;;5.73;;
77384;SDS011;66443;49.122;8.346;2023-11-21T12:02:51;6.83;;;6.13;;
77384;SDS011;66443;49.122;8.346;2023-11-21T12:05:17;8.43;;;5.70;;
77384;SDS011;66443;49.122;8.346;2023-11-21T12:07:53;6.60;;;5.87;;
77384;SDS011;66443;49.122;8.346;2023-11-21T12:10:23;5.97;;;5.37;;
77384;SDS011;66443;49.122;8.346;2023-11-21T12:12:59;6.70;;;5.90;;
77384;SDS011;66443;49.122;8.346;2023-11-21T12:15:25;7.67;;;5.43;;
77384;SDS011;66443;49.122;8.346;2023-11-21T12:17:51;6.17;;;5.57;;
77384;SDS011;66443;49.122;8.346;2023-11-21T12:20:20;6.27;;;5.67;;
77384;SDS011;66443;49.122;8.346;2023-11-21T12:22:46;7.33;;;5.37;;
77384;SDS011;66443;49.122;8.346;2023-11-21T12:25:15;6.30;;;5.67;;
77384;SDS011;66443;49.122;8.346;2023-11-21T12:27:48;5.23;;;4.83;;
77384;SDS011;66443;49.122;8.346;2023-11-21T12:30:15;6.20;;;5.70;;
77384;SDS011;66443;49.122;8.346;2023-11-21T12:32:40;6.77;;;6.10;;
77384;SDS011;66443;49.122;8.346;2023-11-21T12:35:09;6.70;;;5.93;;
77384;SDS011;66443;49.122;8.346;2023-11-21T12:37:35;7.33;;;6.63;;
77384;SDS011;66443;49.122;8.346;2023-11-21T12:40:00;7.97;;;7.17;;
77384;SDS011;66443;49.122;8.346;2023-11-21T12:42:26;7.03;;;5.40;;
77384;SDS011;66443;49.122;8.346;2023-11-21T12:47:48;6.43;;;5.13;;
77384;SDS011;66443;49.122;8.346;2023-11-21T12:50:15;7.67;;;6.97;;
77384;SDS011;66443;49.122;8.346;2023-11-21T12:52:41;6.97;;;6.47;;
77384;SDS011;66443;49.122;8.346;2023-11-21T12:55:06;7.40;;;6.80;;
77384;SDS011;66443;49.122;8.346;2023-11-21T12:57:33;7.20;;;6.50;;
77384;SDS011;66443;49.122;8.346;2023-11-21T12:59:58;6.17;;;5.67;;
77384;SDS011;66443;49.122;8.346;2023-11-21T13:02:29;5.67;;;5.17;;
77384;SDS011;66443;49.122;8.346;2023-11-21T13:04:56;6.33;;;5.80;;
77384;SDS011;66443;49.122;8.346;2023-11-21T13:07:23;6.47;;;5.87;;
77384;SDS011;66443;49.122;8.346;2023-11-21T13:09:51;6.67;;;5.83;;
77384;SDS011;66443;49.122;8.346;2023-11-21T13:12:16;8.20;;;6.17;;
77384;SDS011;66443;49.122;8.346;2023-11-21T13:14:45;5.67;;;5.17;;
77384;SDS011;66443;49.122;8.346;2023-11-21T13:17:10;5.53;;;4.53;;
77384;SDS011;66443;49.122;8.346;2023-11-21T13:19:35;4.07;;;3.77;;
77384;SDS011;66443;49.122;8.346;2023-11-21T13:22:01;5.03;;;4.63;;
77384;SDS011;66443;49.122;8.346;2023-11-21T13:24:29;4.60;;;4.20;;
77384;SDS011;66443;49.122;8.346;2023-11-21T13:26:54;4.27;;;3.87;;
77384;SDS011;66443;49.122;8.346;2023-11-21T13:29:19;8.40;;;4.53;;
77384;SDS011;66443;49.122;8.346;2023-11-21T13:31:45;4.53;;;4.13;;
77384;SDS011;66443;49.122;8.346;2023-11-21T13:34:11;4.67;;;4.27;;
77384;SDS011;66443;49.122;8.346;2023-11-21T13:36:39;3.87;;;3.57;;
77384;SDS011;66443;49.122;8.346;2023-11-21T13:39:07;4.50;;;4.10;;
77384;SDS011;66443;49.122;8.346;2023-11-21T13:41:36;4.13;;;3.63;;
77384;SDS011;66443;49.122;8.346;2023-11-21T13:44:03;4.40;;;3.73;;
77384;SDS011;66443;49.122;8.346;2023-11-21T13:46:39;4.43;;;4.03;;
77384;SDS011;66443;49.122;8.346;2023-11-21T13:49:04;9.43;;;6.73;;
77384;SDS011;66443;49.122;8.346;2023-11-21T13:51:34;4.70;;;4.17;;
77384;SDS011;66443;49.122;8.346;2023-11-21T13:54:06;4.60;;;4.20;;
77384;SDS011;66443;49.122;8.346;2023-11-21T13:56:34;4.57;;;4.27;;
77384;SDS011;66443;49.122;8.346;2023-11-21T13:59:00;4.93;;;4.47;;
77384;SDS011;66443;49.122;8.346;2023-11-21T14:01:34;4.90;;;4.50;;
77384;SDS011;66443;49.122;8.346;2023-11-21T14:04:17;5.40;;;4.37;;
77384;SDS011;66443;49.122;8.346;2023-11-21T14:06:43;5.40;;;4.90;;
77384;SDS011;66443;49.122;8.346;2023-11-21T14:09:16;4.80;;;4.30;;
77384;SDS011;66443;49.122;8.346;2023-11-21T14:14:17;5.57;;;5.07;;
77384;SDS011;66443;49.122;8.346;2023-11-21T14:16:43;4.67;;;4.27;;
77384;SDS011;66443;49.122;8.346;2023-11-21T14:19:08;4.40;;;4.00;;
77384;SDS011;66443;49.122;8.346;2023-11-21T14:21:40;4.67;;;3.40;;
77384;SDS011;66443;49.122;8.346;2023-11-21T14:24:08;4.90;;;3.60;;
77384;SDS011;66443;49.122;8.346;2023-11-21T14:26:34;4.13;;;3.70;;
77384;SDS011;66443;49.122;8.346;2023-11-21T14:29:00;3.50;;;3.30;;
77384;SDS011;66443;49.122;8.346;2023-11-21T14:31:25;3.50;;;3.20;;
77384;SDS011;66443;49.122;8.346;2023-11-21T14:33:51;3.40;;;3.10;;
77384;SDS011;66443;49.122;8.346;2023-11-21T14:36:16;3.10;;;2.63;;
77384;SDS011;66443;49.122;8.346;2023-11-21T14:38:42;4.70;;;3.13;;
77384;SDS011;66443;49.122;8.346;2023-11-21T14:41:07;3.10;;;2.80;;
77384;SDS011;66443;49.122;8.346;2023-11-21T14:43:33;3.60;;;2.60;;
77384;SDS011;66443;49.122;8.346;2023-11-21T14:46:00;3.63;;;2.93;;
77384;SDS011;66443;49.122;8.346;2023-11-21T14:48:25;2.80;;;2.53;;
77384;SDS011;66443;49.122;8.346;2023-11-21T14:51:07;3.10;;;2.30;;
77384;SDS011;66443;49.122;8.346;2023-11-21T14:53:52;3.07;;;2.40;;
77384;SDS011;66443;49.122;8.346;2023-11-21T14:56:24;4.67;;;2.87;;